Ana Sayfa
METAR-TAF:

METAR-TAF

Havaalanları :

Livingston County Spencer J. Hardy Airport

Howell, Michigan, Amerika Birleşik Devletleri

Enlem: 42-37-46N, Boylam: 083-59-03W, yükseklik: 293 m

Güncel hava durumu gözlemi

Rapor saat 02:56 UTC de 28 dakika önce yapıldı.
Rüzgar doğu/kuzeydoğudan 3 kt
Sıcaklık 23°C
Nem 78%
Basınç 1014 hPa
Görüş mesafesi: 16.1 km
Açık gökyüzü

METAR: KOZW 180256Z AUTO 07003KT 10SM CLR 23/19 A2995 RMK AO2 T02260187

Saat: 23:24 (03:24 UTC)


TAF: eksik

4.000'den fazla havaalanı için hava durumu gözlemleri ve tahminleri (METAR ve TAF raporları).

Kullanılabilir istasyonlar harita üzerinde sarı ve kırmızı noktalarla gösterilir.

İstasyonun adını görmek için fareyi noktanın üzerinde gezdirin.

Sonrasında hava gözlem ve tahminlerini görmek için tıklayın.

Haritayı değiştirmek için: yaklaştırmak için siyah artı işaretli yeşil düğmeye ve uzaklaştırmak için de eksi işaretli düğmeye hızla tıklayın; bitişik haritalar için yeşil okları kullanın.


METAR-TAF: